Hastings On Hudson, NY (10706)

9:54 PM EST on December 28, 2014 (GMT -0500)
APRSWXNET Hastings-on-hudson NY US | Change Station
CLOSE
Current Station
Personal Weather Station
Location: Dobbs Ferry, NY
Elevation: 501 ft
Nearby Weather Stations

Elev 501 ft 40.99 °N, 73.87 °W | Updated 32 minutes ago

Overcast
Overcast
42 °F
Feels Like 42 °F
N
1
Wind Variable Wind from West
Gusts 4.0 mph

Today
High -- | Low -- °F
--% Chance of Precip.
Yesterday
High -- | Low -- °F
Precip. -- in
7:19 AM 4:34 PM
First Quarter, 54% visible
Pressure 30.01 in
Visibility 10.0 miles
Clouds Few 4000 ft
Windchill 42 °F
Dew Point 34 °F
Humidity 74%
Rainfall 0.07 in
Snow Depth Not available.
UV 0 out of 12
Pollen .10 out of 12
Air Quality Not available.
Flu Activity Not available.
METAR KHPN 290156Z 31009KT 10SM FEW040 06/00 A2999 RMK AO2 SLP161 T00560000

More Conditions Fewer Conditions

Pressure 30.01 in
Visibility 10.0 miles
Clouds Few 4000 ft
Windchill 42 °F
Dew Point 34 °F
Humidity 74%
Rainfall 0.07 in
Snow Depth Not available.
UV 0 out of 12
Pollen .10 out of 12
Air Quality Not available.
Flu Activity Not available.
METAR KHPN 290156Z 31009KT 10SM FEW040 06/00 A2999 RMK AO2 SLP161 T00560000

More Conditions Fewer Conditions

10-Day Weather Forecast

Almanac

Astronomy

Dec. 28, 2014 Rise Set
Actual Time
Civil Twilight
Nautical Twilight
Astronomical Twilight
Moon
Length of Visible Light
Length of Day
Tomorrow will be .
, % of the Moon is Illuminated

Today's Extremes

State Highs State Lows

Community

WunderPhotos

Upload Photos

1,781,504 photos uploaded!

WunderBlogs® & News

Nearby

Air Quality

  Air Quality AQ Index Pollutant
Not available.

Snow Depth

Station Depth Elevation

Earthquake Activity

City Distance Mag. Time & Date
Minimum magnitude displayed is 2.5.

Coastal Water Temperatures

Place Temperature

Nearby Weather Stations